Terminal Aerodrome Forecast
Issued by NWS Wilmington, OH

Current Version | Previous Version | Text Only | Print | Product List | Glossary Off
Versions: 1 2 3 4 5 6 7 8 9 10 11 12 13 14 15 16 17 18 19

000
FTUS41 KILN 281800 AAA
TAFDAY
TAF AMD
KDAY 281851Z 2819/2918 27014KT P6SM BKN050 OVC100
     FM282100 26012KT P6SM SCT100 OVC200
     FM282300 25007KT P6SM SCT200
     FM291500 26012KT P6SM SCT035=

USA.gov is the U.S. government's official web portal to all federal, state and local government web resources and services.